Time;durP1;ratioP1;P1;durP2;ratioP2;P2;SDS_P1;SDS_P2;PMS_P1;PMS_P2;Temp;Humidity;BMP_temperature;BMP_pressure;BME280_temperature;BME280_humidity;BME280_pressure;Samples;Min_cycle;Max_cycle;Signal;HPM_P1;HPM_P2
2023/01/13 00:00:31;;;;;;;17.83;3.10;;;;;;;;;;5091454;28;20087;-76
2023/01/13 00:02:58;;;;;;;19.48;3.15;;;;;;;;;;5091537;28;20472;-76
2023/01/13 00:05:25;;;;;;;17.10;3.08;;;;;;;;;;5091625;28;20051;-76
2023/01/13 00:07:51;;;;;;;19.85;4.22;;;;;;;;;;5091625;28;20056;-76
2023/01/13 00:10:18;;;;;;;26.58;4.63;;;;;;;;;;5091600;28;20054;-76
2023/01/13 00:12:44;;;;;;;20.98;3.92;;;;;;;;;;5090185;28;20048;-76
2023/01/13 00:15:12;;;;;;;20.13;3.92;;;;;;;;;;5090907;28;20040;-76
2023/01/13 00:17:38;;;;;;;19.00;3.55;;;;;;;;;;5090536;28;20484;-76
2023/01/13 00:20:05;;;;;;;25.27;4.35;;;;;;;;;;5090969;28;20047;-76
2023/01/13 00:22:33;;;;;;;20.67;4.47;;;;;;;;;;5091558;28;20040;-75
2023/01/13 00:25:00;;;;;;;;;;;;;;;;;;5091773;28;20319;-76
2023/01/13 00:27:27;;;;;;;23.42;3.95;;;;;;;;;;5091316;28;19926;-76
2023/01/13 00:29:53;;;;;;;21.77;4.28;;;;;;;;;;5091270;28;20094;-76
2023/01/13 00:32:20;;;;;;;20.13;3.92;;;;;;;;;;5091093;28;20058;-76
2023/01/13 00:34:46;;;;;;;15.77;3.22;;;;;;;;;;5093269;28;20066;-76
2023/01/13 00:37:13;;;;;;;19.52;3.90;;;;;;;;;;5095186;28;20388;-75
2023/01/13 00:39:40;;;;;;;17.38;3.30;;;;;;;;;;5094945;28;20093;-76
2023/01/13 00:44:51;;;;;;;20.83;3.67;;;;;;;;;;5095138;28;20048;-76
2023/01/13 00:47:18;;;;;;;20.08;3.78;;;;;;;;;;5094778;28;20058;-76
2023/01/13 00:49:44;;;;;;;16.35;3.15;;;;;;;;;;5094599;28;20052;-76
2023/01/13 00:52:11;;;;;;;17.83;3.17;;;;;;;;;;5094637;28;20408;-76
2023/01/13 00:54:37;;;;;;;15.60;3.30;;;;;;;;;;5094538;28;20048;-76
2023/01/13 00:57:03;;;;;;;22.50;4.15;;;;;;;;;;5094448;28;20048;-76
2023/01/13 00:59:30;;;;;;;21.63;3.33;;;;;;;;;;5094415;28;20059;-76
2023/01/13 01:01:56;;;;;;;20.08;3.25;;;;;;;;;;5094487;28;20061;-76
2023/01/13 01:04:23;;;;;;;17.90;3.80;;;;;;;;;;5094633;28;20059;-76
2023/01/13 01:06:49;;;;;;;20.08;3.47;;;;;;;;;;5094497;28;20052;-76
2023/01/13 01:09:16;;;;;;;25.35;4.70;;;;;;;;;;5094546;28;20048;-76
2023/01/13 01:11:42;;;;;;;15.15;2.75;;;;;;;;;;5094466;28;20055;-76
2023/01/13 01:14:10;;;;;;;20.00;3.40;;;;;;;;;;5094516;28;20059;-76
2023/01/13 01:16:37;;;;;;;19.08;3.97;;;;;;;;;;5094353;28;20440;-76
2023/01/13 01:19:04;;;;;;;24.13;4.38;;;;;;;;;;5094314;28;20048;-76
2023/01/13 01:21:30;;;;;;;20.80;5.40;;;;;;;;;;5094097;28;20055;-76
2023/01/13 01:23:58;;;;;;;21.38;4.25;;;;;;;;;;5094061;28;20130;-76
2023/01/13 01:26:25;;;;;;;20.30;4.82;;;;;;;;;;5094270;28;20055;-76
2023/01/13 01:28:51;;;;;;;18.13;3.65;;;;;;;;;;5094255;28;20048;-76
2023/01/13 01:31:19;;;;;;;21.77;3.63;;;;;;;;;;5093910;28;20059;-76
2023/01/13 01:33:46;;;;;;;21.75;4.70;;;;;;;;;;5093791;28;21237;-75
2023/01/13 01:36:14;;;;;;;24.70;3.80;;;;;;;;;;5094026;28;20052;-76
2023/01/13 01:38:40;;;;;;;20.63;3.80;;;;;;;;;;5094004;28;20277;-76
2023/01/13 01:41:06;;;;;;;23.65;3.63;;;;;;;;;;5093868;28;20046;-76
2023/01/13 01:43:59;;;;;;;24.90;4.10;;;;;;;;;;5093947;28;20054;-76
2023/01/13 01:46:26;;;;;;;18.48;3.78;;;;;;;;;;5093223;28;20089;-75
2023/01/13 01:48:55;;;;;;;20.17;3.40;;;;;;;;;;5093600;28;20052;-76
2023/01/13 01:51:22;;;;;;;23.48;3.78;;;;;;;;;;5093664;28;20050;-76
2023/01/13 01:53:49;;;;;;;20.45;4.10;;;;;;;;;;5093801;28;20054;-76
2023/01/13 01:56:16;;;;;;;24.50;4.00;;;;;;;;;;5093391;28;20052;-76
2023/01/13 01:58:45;;;;;;;20.80;3.85;;;;;;;;;;5093367;28;20468;-76
2023/01/13 02:01:12;;;;;;;20.75;4.13;;;;;;;;;;5093340;28;20044;-76
2023/01/13 02:03:40;;;;;;;18.77;3.90;;;;;;;;;;5093528;28;20442;-76
2023/01/13 02:06:07;;;;;;;22.48;3.60;;;;;;;;;;5093519;28;20056;-76
2023/01/13 02:08:34;;;;;;;24.45;3.85;;;;;;;;;;5093392;28;20048;-76
2023/01/13 02:11:00;;;;;;;16.43;3.53;;;;;;;;;;5093302;28;20051;-76
2023/01/13 02:13:27;;;;;;;21.35;3.83;;;;;;;;;;5093154;28;20432;-76
2023/01/13 02:16:07;;;;;;;24.88;4.82;;;;;;;;;;5093247;28;20051;-76
2023/01/13 02:18:36;;;;;;;23.52;4.45;;;;;;;;;;5093205;28;20063;-76
2023/01/13 02:21:21;;;;;;;19.25;3.75;;;;;;;;;;5093116;28;20047;-76
2023/01/13 02:26:46;;;;;;;21.40;3.63;;;;;;;;;;5092792;28;20509;-76
2023/01/13 02:32:30;;;;;;;20.27;4.13;;;;;;;;;;5092658;28;20517;-76
2023/01/13 02:35:11;;;;;;;21.50;3.88;;;;;;;;;;5084449;28;20130;-76
2023/01/13 02:37:39;;;;;;;21.80;4.03;;;;;;;;;;5092910;28;20050;-76
2023/01/13 02:40:05;;;;;;;;;;;;;;;;;;5093261;28;20044;-76
2023/01/13 02:45:34;;;;;;;19.95;3.95;;;;;;;;;;5092418;28;20051;-76
2023/01/13 02:48:02;;;;;;;24.50;3.90;;;;;;;;;;5092638;28;20052;-76
2023/01/13 02:50:33;;;;;;;21.63;3.47;;;;;;;;;;5092544;28;20499;-75
2023/01/13 02:53:02;;;;;;;15.70;3.55;;;;;;;;;;5092641;28;20048;-76
2023/01/13 02:55:31;;;;;;;21.55;3.35;;;;;;;;;;5092683;28;20044;-76
2023/01/13 02:57:59;;;;;;;17.70;3.05;;;;;;;;;;5091336;28;20581;-77
2023/01/13 03:00:26;;;;;;;;;;;;;;;;;;5092943;28;20125;-76
2023/01/13 03:02:52;;;;;;;25.52;3.40;;;;;;;;;;5092456;28;19930;-76
2023/01/13 03:05:19;;;;;;;21.92;3.65;;;;;;;;;;5092446;28;20039;-76
2023/01/13 03:07:52;;;;;;;20.08;3.53;;;;;;;;;;5092590;28;20101;-76
2023/01/13 03:10:23;;;;;;;19.27;3.20;;;;;;;;;;5091974;28;20055;-76
2023/01/13 03:13:05;;;;;;;15.65;2.80;;;;;;;;;;5092057;28;20054;-76
2023/01/13 03:15:39;;;;;;;19.50;2.97;;;;;;;;;;5092194;28;20052;-76
2023/01/13 03:18:16;;;;;;;21.00;3.53;;;;;;;;;;5092188;28;20044;-76
2023/01/13 03:20:48;;;;;;;21.40;3.70;;;;;;;;;;5091891;28;20505;-76
2023/01/13 03:23:27;;;;;;;19.83;2.90;;;;;;;;;;5092064;28;20043;-76
2023/01/13 03:26:07;;;;;;;15.50;2.90;;;;;;;;;;5092084;28;20052;-75
2023/01/13 03:28:40;;;;;;;21.58;3.75;;;;;;;;;;5091799;28;20083;-75
2023/01/13 03:31:10;;;;;;;23.83;4.85;;;;;;;;;;5091685;28;20051;-75
2023/01/13 03:33:44;;;;;;;20.45;3.88;;;;;;;;;;5091512;28;20060;-75
2023/01/13 03:36:11;;;;;;;18.45;2.58;;;;;;;;;;5090224;28;20464;-76
2023/01/13 03:38:43;;;;;;;12.57;2.40;;;;;;;;;;5091967;28;20126;-76
2023/01/13 03:41:12;;;;;;;16.35;3.35;;;;;;;;;;5091685;28;20044;-76
2023/01/13 03:46:36;;;;;;;18.95;3.30;;;;;;;;;;5091872;28;20419;-76
2023/01/13 03:49:04;;;;;;;21.38;4.13;;;;;;;;;;5092107;28;20052;-76
2023/01/13 03:51:32;;;;;;;23.38;4.03;;;;;;;;;;5091614;28;20506;-76
2023/01/13 03:54:01;;;;;;;29.67;3.90;;;;;;;;;;5091712;28;20056;-76
2023/01/13 03:56:57;;;;;;;28.95;4.18;;;;;;;;;;5091482;28;20093;-76
2023/01/13 03:59:27;;;;;;;31.40;4.28;;;;;;;;;;5065447;28;20052;-75
2023/01/13 04:01:58;;;;;;;30.20;5.03;;;;;;;;;;5091596;28;20088;-75
2023/01/13 04:04:27;;;;;;;28.77;3.63;;;;;;;;;;5091530;28;20580;-76
2023/01/13 04:06:54;;;;;;;17.67;2.97;;;;;;;;;;5091372;28;20549;-75
2023/01/13 04:09:39;;;;;;;18.95;2.90;;;;;;;;;;5094863;28;20079;-75
2023/01/13 04:12:06;;;;;;;20.75;3.22;;;;;;;;;;5095466;28;20494;-76
2023/01/13 04:14:33;;;;;;;18.95;3.05;;;;;;;;;;5095691;28;20054;-76
2023/01/13 04:16:59;;;;;;;21.15;3.55;;;;;;;;;;5095349;28;20044;-76
2023/01/13 04:19:26;;;;;;;23.58;4.10;;;;;;;;;;5095563;28;20048;-76
2023/01/13 04:21:52;;;;;;;28.30;4.82;;;;;;;;;;5095497;28;20380;-76
2023/01/13 04:24:19;;;;;;;28.65;4.95;;;;;;;;;;5095208;28;20044;-76
2023/01/13 04:26:45;;;;;;;27.60;4.50;;;;;;;;;;5095344;28;20126;-76
2023/01/13 04:29:11;;;;;;;31.83;5.03;;;;;;;;;;5095113;28;20056;-76
2023/01/13 04:31:41;;;;;;;29.13;5.70;;;;;;;;;;5095194;28;20054;-76
2023/01/13 04:34:09;;;;;;;20.00;5.63;;;;;;;;;;5094820;28;20139;-76
2023/01/13 04:36:35;;;;;;;23.35;4.57;;;;;;;;;;5095049;28;20059;-76
2023/01/13 04:39:02;;;;;;;28.08;5.45;;;;;;;;;;5095148;28;20442;-76
2023/01/13 04:41:56;;;;;;;34.17;5.55;;;;;;;;;;5095047;28;20051;-76
2023/01/13 04:44:15;;;;;;;25.77;4.55;;;;;;;;;;5094602;28;20071;-76
2023/01/13 04:46:41;;;;;;;33.33;5.57;;;;;;;;;;5093480;28;20098;-77
2023/01/13 04:49:08;;;;;;;34.40;5.32;;;;;;;;;;5094821;28;20069;-77
2023/01/13 04:51:34;;;;;;;25.92;5.20;;;;;;;;;;5095022;28;20135;-77
2023/01/13 04:54:00;;;;;;;29.15;5.03;;;;;;;;;;5094537;28;20054;-77
2023/01/13 04:56:27;;;;;;;32.97;5.72;;;;;;;;;;5094468;28;20505;-77
2023/01/13 04:58:53;;;;;;;35.80;5.95;;;;;;;;;;5094449;28;20055;-77
2023/01/13 05:01:20;;;;;;;33.53;5.60;;;;;;;;;;5094674;28;20044;-77
2023/01/13 05:03:46;;;;;;;30.13;5.82;;;;;;;;;;5094632;28;20048;-77
2023/01/13 05:06:13;;;;;;;29.23;4.97;;;;;;;;;;5094233;28;20048;-77
2023/01/13 05:08:39;;;;;;;35.08;6.20;;;;;;;;;;5094320;28;20514;-77
2023/01/13 05:16:58;;;;;;;29.02;4.88;;;;;;;;;;5094183;28;20044;-77
2023/01/13 05:19:22;;;;;;;23.67;4.32;;;;;;;;;;5093341;28;20048;-76
2023/01/13 05:27:18;;;;;;;19.75;4.03;;;;;;;;;;5094296;28;20138;-77
2023/01/13 05:29:44;;;;;;;16.73;3.28;;;;;;;;;;5094180;28;20048;-76
2023/01/13 05:32:11;;;;;;;20.52;3.17;;;;;;;;;;5093929;28;20491;-76
2023/01/13 05:34:37;;;;;;;21.10;3.55;;;;;;;;;;5093704;28;20474;-76
2023/01/13 05:37:06;;;;;;;17.63;3.58;;;;;;;;;;5093917;28;20127;-76
2023/01/13 05:43:18;;;;;;;17.05;2.95;;;;;;;;;;5093888;28;20054;-76
2023/01/13 05:45:04;;;;;;;26.85;4.28;;;;;;;;;;5093797;28;20133;-76
2023/01/13 05:47:31;;;;;;;25.38;4.35;;;;;;;;;;5093826;28;20127;-76
2023/01/13 05:49:57;;;;;;;22.23;3.83;;;;;;;;;;5093853;28;20052;-77
2023/01/13 05:52:24;;;;;;;27.38;4.05;;;;;;;;;;5092479;28;20444;-77
2023/01/13 05:54:50;;;;;;;20.27;4.07;;;;;;;;;;5093728;28;20411;-76
2023/01/13 05:57:16;;;;;;;27.45;4.15;;;;;;;;;;5093510;28;20138;-76
2023/01/13 05:59:43;;;;;;;21.20;3.83;;;;;;;;;;5093641;28;20144;-77
2023/01/13 06:02:09;;;;;;;23.40;3.97;;;;;;;;;;5093519;28;20043;-76
2023/01/13 06:04:35;;;;;;;20.90;3.78;;;;;;;;;;5093421;28;20040;-76
2023/01/13 06:07:02;;;;;;;20.15;3.47;;;;;;;;;;5093468;28;20052;-77
2023/01/13 06:09:28;;;;;;;20.92;3.45;;;;;;;;;;5093372;28;20050;-77
2023/01/13 06:11:55;;;;;;;20.45;3.50;;;;;;;;;;5093371;28;20052;-76
2023/01/13 06:14:21;;;;;;;23.45;3.17;;;;;;;;;;5092997;28;20052;-77
2023/01/13 06:16:48;;;;;;;19.17;3.35;;;;;;;;;;5093274;28;20127;-77
2023/01/13 06:19:14;;;;;;;22.23;3.47;;;;;;;;;;5092909;28;20043;-77
2023/01/13 06:21:43;;;;;;;21.73;3.88;;;;;;;;;;5093025;28;20044;-77
2023/01/13 06:24:10;;;;;;;21.58;3.40;;;;;;;;;;5091699;28;20491;-77
2023/01/13 06:26:37;;;;;;;21.23;3.85;;;;;;;;;;5092807;28;20054;-77
2023/01/13 06:29:04;;;;;;;24.73;3.42;;;;;;;;;;5093144;28;20054;-76
2023/01/13 06:31:32;;;;;;;18.67;3.60;;;;;;;;;;5092702;28;20087;-77
2023/01/13 06:34:01;;;;;;;20.10;3.83;;;;;;;;;;5092580;28;20059;-77
2023/01/13 06:36:34;;;;;;;22.00;3.33;;;;;;;;;;5092907;28;20450;-77
2023/01/13 06:39:01;;;;;;;18.70;3.60;;;;;;;;;;5092704;28;20569;-77
2023/01/13 06:44:14;;;;;;;26.13;3.78;;;;;;;;;;5092758;28;20119;-77
2023/01/13 06:46:41;;;;;;;20.35;3.65;;;;;;;;;;5092592;28;20521;-77
2023/01/13 06:49:07;;;;;;;20.70;3.67;;;;;;;;;;5092563;28;20071;-77
2023/01/13 06:51:33;;;;;;;17.02;3.15;;;;;;;;;;5092372;28;20419;-77
2023/01/13 06:54:00;;;;;;;18.70;3.50;;;;;;;;;;5092206;28;20094;-77
2023/01/13 06:56:26;;;;;;;19.42;4.03;;;;;;;;;;5092763;28;20054;-77
2023/01/13 06:58:52;;;;;;;16.52;3.33;;;;;;;;;;5092440;28;20044;-77
2023/01/13 07:01:19;;;;;;;23.58;3.95;;;;;;;;;;5092473;28;20040;-77
2023/01/13 07:03:45;;;;;;;21.10;3.50;;;;;;;;;;5090588;28;20463;-77
2023/01/13 07:06:12;;;;;;;20.38;4.10;;;;;;;;;;5091610;28;20051;-76
2023/01/13 07:08:38;;;;;;;20.10;3.20;;;;;;;;;;5093160;28;20072;-77
2023/01/13 07:11:05;;;;;;;24.45;3.70;;;;;;;;;;5092123;28;20407;-77
2023/01/13 07:16:18;;;;;;;19.48;3.95;;;;;;;;;;5092015;28;20047;-77
2023/01/13 07:18:44;;;;;;;24.80;3.50;;;;;;;;;;5092113;28;20056;-76
2023/01/13 07:21:17;;;;;;;20.05;3.58;;;;;;;;;;5092067;28;20040;-77
2023/01/13 07:23:44;;;;;;;22.75;3.50;;;;;;;;;;5090710;28;20635;-76
2023/01/13 07:26:11;;;;;;;17.35;3.63;;;;;;;;;;5090744;28;20101;-77
2023/01/13 07:28:38;;;;;;;19.42;3.63;;;;;;;;;;5091736;28;20484;-77
2023/01/13 07:31:05;;;;;;;18.75;3.55;;;;;;;;;;5091809;28;20054;-76
2023/01/13 07:33:32;;;;;;;17.38;3.28;;;;;;;;;;5091883;28;20349;-76
2023/01/13 07:36:03;;;;;;;17.77;3.85;;;;;;;;;;5091760;28;20397;-80
2023/01/13 07:38:30;;;;;;;14.88;2.30;;;;;;;;;;5090303;28;20488;-76
2023/01/13 07:40:56;;;;;;;25.42;3.63;;;;;;;;;;5091650;28;20434;-76
2023/01/13 07:43:32;;;;;;;18.23;3.40;;;;;;;;;;5094904;28;20119;-77
2023/01/13 07:45:59;;;;;;;15.80;3.40;;;;;;;;;;5097980;28;20484;-76
2023/01/13 07:48:26;;;;;;;19.48;3.08;;;;;;;;;;5098263;28;20123;-76
2023/01/13 07:50:53;;;;;;;19.00;3.03;;;;;;;;;;5098477;28;20419;-77
2023/01/13 07:53:20;;;;;;;15.68;2.83;;;;;;;;;;5098289;28;20056;-76
2023/01/13 07:55:47;;;;;;;13.00;3.70;;;;;;;;;;5094999;28;20511;-77
2023/01/13 07:58:13;;;;;;;20.90;4.20;;;;;;;;;;5098362;28;20040;-77
2023/01/13 08:00:40;;;;;;;23.65;3.92;;;;;;;;;;5098051;28;20036;-77
2023/01/13 08:03:06;;;;;;;20.00;3.80;;;;;;;;;;5097790;28;20124;-77
2023/01/13 08:05:36;;;;;;;22.77;3.75;;;;;;;;;;5097362;28;20048;-76
2023/01/13 08:08:02;;;;;;;21.20;3.45;;;;;;;;;;5097461;28;20487;-75
2023/01/13 08:10:29;;;;;;;22.35;3.75;;;;;;;;;;5097723;28;20151;-75
2023/01/13 08:15:40;;;;;;;20.35;3.25;;;;;;;;;;5098479;28;20089;-77
2023/01/13 08:18:06;;;;;;;15.55;3.33;;;;;;;;;;5097414;28;20514;-75
2023/01/13 08:20:33;;;;;;;18.20;3.33;;;;;;;;;;5097846;28;20140;-76
2023/01/13 08:23:00;;;;;;;16.45;3.10;;;;;;;;;;5097994;28;20146;-77
2023/01/13 08:25:27;;;;;;;20.98;3.40;;;;;;;;;;5098097;28;20040;-76
2023/01/13 08:27:53;;;;;;;18.88;4.05;;;;;;;;;;5097723;28;20052;-77
2023/01/13 08:30:20;;;;;;;15.07;2.85;;;;;;;;;;5097737;28;20082;-77
2023/01/13 08:32:47;;;;;;;14.77;2.92;;;;;;;;;;5097695;28;20052;-77
2023/01/13 08:35:15;;;;;;;19.70;3.08;;;;;;;;;;5097631;28;20048;-77
2023/01/13 08:37:42;;;;;;;21.38;3.10;;;;;;;;;;5097785;28;20087;-77
2023/01/13 08:40:09;;;;;;;17.93;3.07;;;;;;;;;;5097805;28;20118;-76
2023/01/13 08:42:36;;;;;;;23.80;3.97;;;;;;;;;;5097440;28;20040;-77
2023/01/13 08:45:04;;;;;;;18.25;3.83;;;;;;;;;;5098038;28;20123;-78
2023/01/13 08:47:30;;;;;;;17.40;3.60;;;;;;;;;;5098050;28;20051;-77
2023/01/13 08:49:56;;;;;;;22.55;4.22;;;;;;;;;;5098069;28;20047;-77
2023/01/13 08:52:23;;;;;;;14.85;3.95;;;;;;;;;;5095342;28;20131;-78
2023/01/13 08:54:49;;;;;;;22.52;3.70;;;;;;;;;;5095064;28;20052;-78
2023/01/13 08:57:18;;;;;;;16.88;4.05;;;;;;;;;;5093117;28;20387;-78
2023/01/13 08:59:45;;;;;;;16.13;2.50;;;;;;;;;;5094661;28;20055;-78
2023/01/13 09:02:12;;;;;;;17.92;2.97;;;;;;;;;;5093886;28;20075;-78
2023/01/13 09:04:39;;;;;;;18.50;3.25;;;;;;;;;;5093976;28;20074;-78
2023/01/13 09:07:05;;;;;;;17.40;3.00;;;;;;;;;;5093133;28;20052;-79
2023/01/13 09:09:32;;;;;;;14.60;2.92;;;;;;;;;;5085164;28;20054;-78
2023/01/13 09:14:43;;;;;;;18.90;3.80;;;;;;;;;;5093978;28;20056;-77
2023/01/13 09:17:10;;;;;;;15.32;3.40;;;;;;;;;;5093503;28;20044;-77
2023/01/13 09:19:36;;;;;;;17.38;3.10;;;;;;;;;;5093924;28;20127;-76
2023/01/13 09:22:02;;;;;;;15.10;2.97;;;;;;;;;;5093717;28;20056;-80
2023/01/13 09:24:29;;;;;;;17.33;3.13;;;;;;;;;;5092520;28;20067;-78
2023/01/13 09:26:56;;;;;;;16.42;3.55;;;;;;;;;;5093725;28;20122;-79
2023/01/13 09:29:22;;;;;;;15.95;2.67;;;;;;;;;;5093255;28;20048;-78
2023/01/13 09:31:48;;;;;;;15.88;3.25;;;;;;;;;;5092937;28;20448;-78
2023/01/13 09:37:02;;;;;;;19.83;3.40;;;;;;;;;;5092866;28;20044;-78
2023/01/13 09:39:28;;;;;;;14.43;2.80;;;;;;;;;;5093176;28;20159;-78
2023/01/13 09:44:44;;;;;;;20.20;3.57;;;;;;;;;;5093595;28;20369;-78
2023/01/13 09:47:15;;;;;;;21.70;3.40;;;;;;;;;;5093292;28;20139;-78
2023/01/13 09:49:42;;;;;;;19.70;3.88;;;;;;;;;;5093483;28;20052;-78
2023/01/13 09:52:13;;;;;;;14.13;2.95;;;;;;;;;;5093268;28;20048;-77
2023/01/13 09:54:58;;;;;;;16.13;3.10;;;;;;;;;;5093023;28;20123;-77
2023/01/13 09:57:26;;;;;;;15.02;3.10;;;;;;;;;;5091605;28;20056;-78
2023/01/13 09:59:52;;;;;;;;;;;;;;;;;;5093283;28;20155;-81
2023/01/13 10:02:32;;;;;;;16.17;3.08;;;;;;;;;;5089475;28;19923;-79
2023/01/13 10:05:09;;;;;;;14.82;2.97;;;;;;;;;;5092685;28;20127;-79
2023/01/13 10:07:37;;;;;;;14.80;2.87;;;;;;;;;;5092684;28;20143;-79
2023/01/13 10:10:03;;;;;;;;;;;;;;;;;;5092738;28;20079;-79
2023/01/13 10:15:16;;;;;;;15.77;2.92;;;;;;;;;;5092244;28;20056;-81
2023/01/13 10:17:43;;;;;;;16.60;3.05;;;;;;;;;;5092288;28;20052;-79
2023/01/13 10:20:09;;;;;;;14.93;3.13;;;;;;;;;;5092503;28;20047;-80
2023/01/13 10:22:41;;;;;;;17.55;3.13;;;;;;;;;;5092590;28;20156;-80
2023/01/13 10:25:30;;;;;;;16.80;4.22;;;;;;;;;;5092038;28;20067;-80
2023/01/13 10:28:03;;;;;;;18.35;3.60;;;;;;;;;;5092366;28;20163;-80
2023/01/13 10:30:34;;;;;;;14.07;3.22;;;;;;;;;;5092492;28;20048;-80
2023/01/13 10:33:05;;;;;;;10.40;2.33;;;;;;;;;;5092375;28;20475;-79
2023/01/13 10:35:47;;;;;;;12.25;2.80;;;;;;;;;;5092425;28;20464;-80
2023/01/13 10:38:37;;;;;;;12.68;2.88;;;;;;;;;;5107892;28;20410;-80
2023/01/13 10:41:23;;;;;;;11.23;2.60;;;;;;;;;;5068266;28;20066;-80
2023/01/13 10:43:56;;;;;;;10.27;2.72;;;;;;;;;;5091959;28;20123;-80
2023/01/13 10:46:22;;;;;;;10.38;2.60;;;;;;;;;;5092039;28;20052;-80
2023/01/13 10:48:55;;;;;;;13.52;2.30;;;;;;;;;;5091908;28;20052;-80
2023/01/13 10:51:28;;;;;;;12.52;3.42;;;;;;;;;;5091992;28;20135;-80
2023/01/13 10:53:54;;;;;;;14.27;2.95;;;;;;;;;;5091930;28;20052;-80
2023/01/13 10:56:22;;;;;;;9.93;2.70;;;;;;;;;;5092030;28;20051;-77
2023/01/13 10:58:49;;;;;;;11.15;2.55;;;;;;;;;;5091651;28;20415;-77
2023/01/13 11:01:20;;;;;;;10.02;2.35;;;;;;;;;;5091381;28;20468;-80
2023/01/13 11:03:47;;;;;;;8.80;2.40;;;;;;;;;;5089813;28;20128;-79
2023/01/13 11:06:20;;;;;;;8.10;1.87;;;;;;;;;;5091746;28;20054;-79
2023/01/13 11:08:48;;;;;;;8.40;1.95;;;;;;;;;;5091628;28;20058;-79
2023/01/13 11:11:26;;;;;;;8.32;1.92;;;;;;;;;;5091217;28;20131;-80
2023/01/13 11:16:41;;;;;;;5.53;2.00;;;;;;;;;;5091716;28;20113;-80
2023/01/13 11:19:20;;;;;;;6.85;2.00;;;;;;;;;;5091240;28;20062;-80
2023/01/13 11:21:49;;;;;;;9.45;2.30;;;;;;;;;;5091702;28;20448;-80
2023/01/13 11:24:28;;;;;;;10.20;2.05;;;;;;;;;;5091522;28;20079;-80
2023/01/13 11:27:00;;;;;;;7.75;2.20;;;;;;;;;;5091641;28;20048;-80
2023/01/13 11:29:49;;;;;;;13.02;2.90;;;;;;;;;;5091512;28;20080;-79
2023/01/13 11:32:20;;;;;;;12.32;2.80;;;;;;;;;;5090781;28;20054;-80
2023/01/13 11:34:51;;;;;;;11.50;2.92;;;;;;;;;;5090972;28;20086;-80
2023/01/13 11:37:23;;;;;;;10.70;2.83;;;;;;;;;;5091520;28;20084;-80
2023/01/13 11:39:52;;;;;;;12.88;3.15;;;;;;;;;;5091318;28;20047;-80
2023/01/13 11:42:23;;;;;;;12.80;2.85;;;;;;;;;;5091400;28;20434;-80
2023/01/13 11:44:54;;;;;;;14.02;3.00;;;;;;;;;;5091142;28;20473;-80
2023/01/13 11:47:23;;;;;;;13.65;2.95;;;;;;;;;;5091105;28;20050;-80
2023/01/13 11:49:49;;;;;;;15.65;3.30;;;;;;;;;;5091438;28;20048;-80
2023/01/13 11:52:20;;;;;;;15.27;2.80;;;;;;;;;;5091445;28;20058;-80
2023/01/13 11:54:54;;;;;;;11.57;2.90;;;;;;;;;;5091108;28;20555;-80
2023/01/13 11:57:23;;;;;;;14.25;3.42;;;;;;;;;;5090397;28;20126;-82
2023/01/13 11:59:59;;;;;;;12.68;3.15;;;;;;;;;;5086167;28;20135;-81
2023/01/13 12:02:44;;;;;;;13.02;2.70;;;;;;;;;;5084564;28;20051;-82
2023/01/13 12:05:34;;;;;;;14.05;2.88;;;;;;;;;;5089527;28;20048;-81
2023/01/13 12:08:22;;;;;;;14.15;3.10;;;;;;;;;;5090719;28;20051;-85
2023/01/13 12:11:01;;;;;;;13.32;2.40;;;;;;;;;;5090929;28;20044;-81
2023/01/13 12:13:35;;;;;;;11.45;2.88;;;;;;;;;;5090841;28;20139;-82
2023/01/13 12:16:10;;;;;;;11.60;3.00;;;;;;;;;;5090454;28;20083;-83
2023/01/13 12:18:45;;;;;;;9.80;2.50;;;;;;;;;;5090988;28;20398;-83
2023/01/13 12:21:21;;;;;;;10.70;2.53;;;;;;;;;;5076883;28;20040;-83
2023/01/13 12:24:00;;;;;;;12.23;2.30;;;;;;;;;;5090235;28;20046;-82
2023/01/13 12:26:28;;;;;;;12.50;2.58;;;;;;;;;;5089397;28;20545;-83
2023/01/13 12:28:56;;;;;;;12.13;2.50;;;;;;;;;;5091416;28;20582;-80
2023/01/13 12:31:23;;;;;;;12.18;2.83;;;;;;;;;;5094895;28;20058;-82
2023/01/13 12:33:56;;;;;;;13.48;3.03;;;;;;;;;;5093698;28;20063;-83
2023/01/13 12:36:52;;;;;;;11.77;2.38;;;;;;;;;;5092594;28;20070;-85
2023/01/13 12:39:39;;;;;;;16.98;3.05;;;;;;;;;;5080958;28;20483;-85
2023/01/13 12:45:11;;;;;;;13.95;3.60;;;;;;;;;;5094149;28;20502;-84
2023/01/13 12:47:40;;;;;;;14.07;3.42;;;;;;;;;;5094083;28;20054;-83
2023/01/13 12:50:24;;;;;;;10.57;2.83;;;;;;;;;;5093124;28;20047;-82
2023/01/13 12:52:51;;;;;;;16.63;3.25;;;;;;;;;;5091552;28;20093;-83
2023/01/13 12:55:21;;;;;;;13.25;2.85;;;;;;;;;;5093032;28;20044;-83
2023/01/13 12:57:55;;;;;;;12.60;2.90;;;;;;;;;;5093859;28;20130;-82
2023/01/13 13:00:21;;;;;;;13.55;2.90;;;;;;;;;;5093972;28;20044;-77
2023/01/13 13:03:08;;;;;;;14.80;2.67;;;;;;;;;;5091617;28;20048;-82
2023/01/13 13:05:40;;;;;;;15.27;3.27;;;;;;;;;;5094078;28;20040;-82
2023/01/13 13:08:06;;;;;;;12.02;2.60;;;;;;;;;;5092959;28;20127;-82
2023/01/13 13:10:37;;;;;;;10.18;2.35;;;;;;;;;;5093508;28;20059;-82
2023/01/13 13:13:18;;;;;;;10.52;2.28;;;;;;;;;;5094112;28;20059;-82
2023/01/13 13:15:46;;;;;;;11.27;2.75;;;;;;;;;;5093872;28;20135;-82
2023/01/13 13:18:19;;;;;;;12.88;2.72;;;;;;;;;;5093680;28;20106;-82
2023/01/13 13:20:55;;;;;;;8.85;2.20;;;;;;;;;;5093778;28;20106;-82
2023/01/13 13:23:36;;;;;;;10.60;2.67;;;;;;;;;;5093811;28;20086;-82
2023/01/13 13:26:03;;;;;;;11.70;3.05;;;;;;;;;;5093766;28;20048;-82
2023/01/13 13:28:34;;;;;;;11.23;2.78;;;;;;;;;;5093582;28;20126;-82
2023/01/13 13:31:22;;;;;;;12.93;2.28;;;;;;;;;;5092401;28;20058;-82
2023/01/13 13:33:57;;;;;;;8.63;2.42;;;;;;;;;;5093317;28;20060;-82
2023/01/13 13:36:41;;;;;;;12.23;2.75;;;;;;;;;;5093317;28;20060;-82
2023/01/13 13:47:59;;;;;;;12.57;2.60;;;;;;;;;;5092681;28;20131;-82
2023/01/13 13:50:29;;;;;;;16.48;2.95;;;;;;;;;;5093167;28;20044;-82
2023/01/13 13:53:07;;;;;;;16.17;2.95;;;;;;;;;;5091966;28;20130;-81
2023/01/13 13:55:33;;;;;;;12.13;3.20;;;;;;;;;;5092841;28;20136;-81
2023/01/13 13:58:00;;;;;;;14.43;2.63;;;;;;;;;;5092559;28;20077;-82
2023/01/13 14:00:29;;;;;;;15.95;3.08;;;;;;;;;;5092288;28;20499;-82
2023/01/13 14:02:57;;;;;;;16.15;2.83;;;;;;;;;;5090283;28;20483;-81
2023/01/13 14:05:31;;;;;;;10.70;2.92;;;;;;;;;;5093028;28;20085;-82
2023/01/13 14:07:58;;;;;;;14.27;2.97;;;;;;;;;;5091704;28;20123;-81
2023/01/13 14:10:35;;;;;;;14.82;2.85;;;;;;;;;;5091636;28;20047;-81
2023/01/13 14:13:12;;;;;;;14.98;2.60;;;;;;;;;;5092740;28;20048;-82
2023/01/13 14:15:39;;;;;;;11.77;2.80;;;;;;;;;;5092892;28;20046;-81
2023/01/13 14:18:06;;;;;;;;;;;;;;;;;;5092969;28;20373;-82
2023/01/13 14:20:33;;;;;;;15.68;2.78;;;;;;;;;;5092792;28;20443;-82
2023/01/13 14:23:00;;;;;;;14.63;2.80;;;;;;;;;;5092360;28;20515;-81
2023/01/13 14:25:32;;;;;;;17.80;3.42;;;;;;;;;;5091333;28;20127;-81
2023/01/13 14:28:02;;;;;;;13.50;3.28;;;;;;;;;;5092212;28;20415;-81
2023/01/13 14:30:29;;;;;;;13.98;2.72;;;;;;;;;;5092156;28;20143;-82
2023/01/13 14:32:55;;;;;;;16.98;2.97;;;;;;;;;;5091873;28;20052;-81
2023/01/13 14:35:22;;;;;;;15.60;2.90;;;;;;;;;;5092452;28;20048;-81
2023/01/13 14:37:49;;;;;;;12.90;3.75;;;;;;;;;;5090977;28;20052;-81
2023/01/13 14:40:35;;;;;;;14.77;3.20;;;;;;;;;;5092156;28;20130;-81
2023/01/13 14:43:02;;;;;;;12.82;2.70;;;;;;;;;;5091784;28;20411;-81
2023/01/13 14:45:31;;;;;;;15.52;3.50;;;;;;;;;;5091453;28;20123;-82
2023/01/13 14:47:59;;;;;;;18.60;3.17;;;;;;;;;;5090165;28;20574;-82
2023/01/13 14:50:30;;;;;;;14.05;2.63;;;;;;;;;;5091699;28;20054;-82
2023/01/13 14:52:57;;;;;;;13.13;2.80;;;;;;;;;;5090636;28;20052;-82
2023/01/13 14:55:35;;;;;;;12.73;2.70;;;;;;;;;;5090429;28;20060;-81
2023/01/13 14:58:20;;;;;;;13.13;2.47;;;;;;;;;;5091880;28;20054;-82
2023/01/13 15:00:47;;;;;;;16.67;3.00;;;;;;;;;;5091322;28;20079;-81
2023/01/13 15:03:14;;;;;;;10.95;2.45;;;;;;;;;;5090009;28;20411;-82
2023/01/13 15:05:48;;;;;;;13.80;2.80;;;;;;;;;;5091634;28;20068;-82
2023/01/13 15:08:16;;;;;;;14.18;2.75;;;;;;;;;;5091689;28;20048;-82
2023/01/13 15:10:47;;;;;;;12.35;2.95;;;;;;;;;;5090112;28;20054;-81
2023/01/13 15:13:24;;;;;;;16.40;3.50;;;;;;;;;;5090425;28;20086;-80
2023/01/13 15:15:53;;;;;;;15.65;3.05;;;;;;;;;;5092237;28;20040;-82
2023/01/13 15:18:20;;;;;;;12.57;2.47;;;;;;;;;;5091484;28;20052;-82
2023/01/13 15:20:46;;;;;;;18.00;3.20;;;;;;;;;;5091502;28;20051;-82
2023/01/13 15:23:12;;;;;;;12.32;2.50;;;;;;;;;;5091093;28;20406;-81
2023/01/13 15:25:40;;;;;;;14.85;2.67;;;;;;;;;;5091622;28;20082;-81
2023/01/13 15:28:15;;;;;;;12.73;3.08;;;;;;;;;;5091421;28;20044;-81
2023/01/13 15:30:42;;;;;;;16.77;3.00;;;;;;;;;;5091524;28;20139;-81
2023/01/13 15:33:09;;;;;;;16.45;2.75;;;;;;;;;;5090827;28;20094;-81
2023/01/13 15:35:36;;;;;;;16.23;3.05;;;;;;;;;;5091307;28;20047;-82
2023/01/13 15:38:08;;;;;;;14.00;3.28;;;;;;;;;;5091104;28;20056;-82
2023/01/13 15:40:35;;;;;;;13.45;3.15;;;;;;;;;;5089735;28;20056;-82
2023/01/13 15:48:31;;;;;;;13.35;3.40;;;;;;;;;;5090058;28;20559;-82
2023/01/13 15:50:59;;;;;;;15.57;3.40;;;;;;;;;;5091687;28;20155;-82
2023/01/13 15:53:26;;;;;;;15.52;3.30;;;;;;;;;;5091517;28;20051;-82
2023/01/13 15:55:54;;;;;;;13.77;4.93;;;;;;;;;;5091354;28;20044;-82